Time;durP1;ratioP1;P1;durP2;ratioP2;P2;SDS_P1;SDS_P2;PMS_P1;PMS_P2;Temp;Humidity;BMP_temperature;BMP_pressure;BME280_temperature;BME280_humidity;BME280_pressure;Samples;Min_cycle;Max_cycle;Signal;HPM_P1;HPM_P2
2022/03/23 00:00:11;;;;;;;13.03;8.80;;;;;;;1.17;100.00;97458.50;5047790;27;106570;-57
2022/03/23 00:02:41;;;;;;;12.77;7.90;;;;;;;1.08;100.00;97452.44;5048550;27;101908;-58
2022/03/23 00:05:08;;;;;;;9.47;8.00;;;;;;;1.37;100.00;97457.16;5048363;27;105528;-57
2022/03/23 00:07:36;;;;;;;11.23;8.30;;;;;;;1.39;100.00;97456.00;5051384;27;105144;-58
2022/03/23 00:10:04;;;;;;;15.97;9.57;;;;;;;1.45;100.00;97450.09;5048029;27;105190;-57
2022/03/23 00:12:31;;;;;;;10.83;8.43;;;;;;;1.49;100.00;97453.97;5047750;27;105591;-58
2022/03/23 00:14:59;;;;;;;12.00;9.33;;;;;;;1.57;100.00;97442.66;5049828;27;102281;-57
2022/03/23 00:17:27;;;;;;;9.73;8.57;;;;;;;1.54;100.00;97451.69;5049588;27;102925;-58
2022/03/23 00:19:54;;;;;;;10.53;8.67;;;;;;;1.71;100.00;97444.59;5047286;27;105706;-58
2022/03/23 00:22:26;;;;;;;10.10;8.30;;;;;;;1.55;100.00;97450.72;5048335;27;101871;-58
2022/03/23 00:24:56;;;;;;;13.07;8.90;;;;;;;1.66;100.00;97446.91;5048251;27;104930;-58
2022/03/23 00:27:23;;;;;;;10.30;8.50;;;;;;;1.51;100.00;97449.41;5048699;27;103103;-58
2022/03/23 00:29:50;;;;;;;10.60;8.67;;;;;;;1.27;100.00;97454.69;5051526;27;101883;-58
2022/03/23 00:32:17;;;;;;;12.53;8.63;;;;;;;1.15;100.00;97452.59;5049202;27;102675;-58
2022/03/23 00:34:44;;;;;;;10.50;8.23;;;;;;;1.03;100.00;97453.91;5047854;27;102063;-57
2022/03/23 00:37:11;;;;;;;13.23;9.07;;;;;;;0.92;100.00;97455.06;5049475;27;102448;-57
2022/03/23 00:39:38;;;;;;;9.80;8.67;;;;;;;0.97;100.00;97449.34;5047409;27;105362;-58
2022/03/23 00:42:07;;;;;;;12.00;8.90;;;;;;;1.09;100.00;97450.66;5047812;27;101821;-57
2022/03/23 00:44:35;;;;;;;10.53;8.30;;;;;;;0.96;100.00;97442.47;5047773;27;104086;-58
2022/03/23 00:47:02;;;;;;;12.80;8.70;;;;;;;0.76;100.00;97449.84;5047243;27;105360;-58
2022/03/23 00:49:29;;;;;;;10.57;8.53;;;;;;;0.85;100.00;97450.66;5052697;27;101980;-57
2022/03/23 00:51:56;;;;;;;10.27;7.90;;;;;;;0.91;100.00;97453.44;5046991;27;103894;-58
2022/03/23 00:54:23;;;;;;;12.03;9.43;;;;;;;1.06;100.00;97448.34;5052647;27;102208;-58
2022/03/23 00:56:51;;;;;;;11.53;9.17;;;;;;;1.09;100.00;97448.03;5051198;27;104989;-57
2022/03/23 00:59:20;;;;;;;13.70;8.53;;;;;;;1.16;100.00;97455.03;5050397;27;106143;-57
2022/03/23 01:01:48;;;;;;;10.53;8.70;;;;;;;1.24;100.00;97446.34;5052702;27;101972;-58
2022/03/23 01:04:18;;;;;;;12.50;9.30;;;;;;;1.01;100.00;97455.88;5050968;27;104934;-58
2022/03/23 01:06:45;;;;;;;10.77;8.43;;;;;;;1.18;100.00;97453.09;5050302;27;105330;-58
2022/03/23 01:09:12;;;;;;;11.40;8.40;;;;;;;1.20;100.00;97450.31;5050996;27;101873;-57
2022/03/23 01:11:41;;;;;;;13.73;10.07;;;;;;;1.10;100.00;97453.09;5053919;27;103652;-58
2022/03/23 01:14:09;;;;;;;10.50;8.97;;;;;;;0.74;100.00;97456.22;5050123;27;102186;-57
2022/03/23 01:16:39;;;;;;;10.03;8.67;;;;;;;0.83;100.00;97452.63;5050701;27;105300;-58
2022/03/23 01:19:07;;;;;;;11.87;9.73;;;;;;;0.87;100.00;97459.16;5050399;27;105020;-58
2022/03/23 01:21:35;;;;;;;10.00;8.53;;;;;;;0.94;100.00;97460.16;5050812;27;101910;-58
2022/03/23 01:24:02;;;;;;;10.57;8.67;;;;;;;0.81;100.00;97463.25;5050783;27;105176;-58
2022/03/23 01:26:29;;;;;;;13.80;8.83;;;;;;;0.56;100.00;97463.41;5050346;27;105169;-58
2022/03/23 01:28:56;;;;;;;11.43;8.90;;;;;;;0.54;100.00;97458.34;5050739;27;101866;-56
2022/03/23 01:31:23;;;;;;;11.97;9.50;;;;;;;0.66;100.00;97451.00;5050725;27;104929;-58
2022/03/23 01:33:52;;;;;;;9.90;8.40;;;;;;;0.40;100.00;97453.72;5053556;27;105469;-57
2022/03/23 01:36:21;;;;;;;10.63;8.33;;;;;;;0.47;100.00;97456.53;5050814;27;104806;-58
2022/03/23 01:38:48;;;;;;;12.50;9.43;;;;;;;0.42;100.00;97449.19;5049752;27;105740;-57
2022/03/23 01:41:16;;;;;;;12.20;9.17;;;;;;;0.54;100.00;97454.91;5050423;27;102013;-58
2022/03/23 01:43:43;;;;;;;11.80;8.60;;;;;;;0.49;100.00;97458.00;5050700;27;104170;-58
2022/03/23 01:46:10;;;;;;;12.23;9.80;;;;;;;0.49;100.00;97449.31;5049819;27;105694;-57
2022/03/23 01:48:37;;;;;;;11.30;9.00;;;;;;;0.58;100.00;97445.75;5050217;27;102035;-58
2022/03/23 01:51:06;;;;;;;10.83;9.13;;;;;;;0.55;100.00;97448.72;5050594;27;105115;-58
2022/03/23 01:53:33;;;;;;;14.00;9.60;;;;;;;0.32;100.00;97450.28;5049503;27;105907;-57
2022/03/23 01:56:01;;;;;;;11.63;9.17;;;;;;;0.27;100.00;97447.34;5053776;27;101834;-58
2022/03/23 01:58:31;;;;;;;13.67;9.20;;;;;;;0.33;100.00;97452.75;5049770;27;103573;-57
2022/03/23 02:00:58;;;;;;;12.07;9.90;;;;;;;0.52;100.00;97454.25;5050113;27;101842;-57
2022/03/23 02:03:26;;;;;;;11.57;9.40;;;;;;;0.22;100.00;97458.28;5050039;27;105334;-57
2022/03/23 02:05:54;;;;;;;11.30;9.43;;;;;;;0.40;100.00;97452.94;5049531;27;105071;-58
2022/03/23 02:08:23;;;;;;;11.47;9.13;;;;;;;0.22;100.00;97447.03;5051614;27;101882;-57
2022/03/23 02:10:51;;;;;;;10.43;9.33;;;;;;;0.30;100.00;97449.66;5050093;27;105139;-57
2022/03/23 02:13:27;;;;;;;9.97;8.50;;;;;;;0.25;100.00;97451.91;5049318;27;105097;-58
2022/03/23 02:15:54;;;;;;;10.83;9.40;;;;;;;0.33;100.00;97444.91;5050044;27;101902;-58
2022/03/23 02:18:21;;;;;;;10.60;8.60;;;;;;;0.21;100.00;97448.81;5052758;27;104938;-58
2022/03/23 02:20:47;;;;;;;9.77;8.50;;;;;;;0.25;100.00;97444.06;5049524;27;101970;-57
2022/03/23 02:23:16;;;;;;;10.80;8.50;;;;;;;-0.08;100.00;97458.03;5050077;27;104721;-57
2022/03/23 02:25:48;;;;;;;11.03;8.63;;;;;;;-0.19;100.00;97450.50;5049189;27;105012;-57
2022/03/23 02:28:15;;;;;;;11.57;9.10;;;;;;;-0.13;100.00;97452.47;5049594;27;101910;-57
2022/03/23 02:30:42;;;;;;;13.27;9.27;;;;;;;-0.08;100.00;97442.38;5050026;27;105217;-57
2022/03/23 02:33:10;;;;;;;11.63;8.87;;;;;;;-0.12;100.00;97456.72;5049212;27;105524;-58
2022/03/23 02:35:37;;;;;;;10.90;9.10;;;;;;;-0.19;100.00;97453.09;5049559;27;101868;-58
2022/03/23 02:38:03;;;;;;;10.70;8.60;;;;;;;-0.47;100.00;97446.47;5049687;27;105141;-57
2022/03/23 02:40:32;;;;;;;10.40;8.43;;;;;;;-0.50;100.00;97449.38;5052043;27;101947;-57
2022/03/23 02:42:59;;;;;;;13.97;9.23;;;;;;;-0.34;100.00;97449.44;5049635;27;105237;-58
2022/03/23 02:45:26;;;;;;;11.00;9.23;;;;;;;-0.24;100.00;97447.53;5048670;27;105750;-58
2022/03/23 02:47:53;;;;;;;11.47;9.63;;;;;;;-0.18;100.00;97448.72;5049323;27;101911;-57
2022/03/23 02:50:20;;;;;;;12.37;8.83;;;;;;;-0.13;100.00;97456.91;5049554;27;105611;-58
2022/03/23 03:03:59;;;;;;;11.53;9.10;;;;;;;0.11;100.00;97455.19;5050740;27;102825;-58
2022/03/23 03:06:26;;;;;;;11.63;10.17;;;;;;;0.10;100.00;97453.50;5050209;27;102603;-58
2022/03/23 03:08:53;;;;;;;12.80;9.57;;;;;;;0.18;100.00;97450.94;5047863;27;101908;-57
2022/03/23 03:11:22;;;;;;;11.13;9.30;;;;;;;0.17;100.00;97449.31;5050592;27;102926;-57
2022/03/23 03:13:56;;;;;;;11.47;9.67;;;;;;;-0.03;100.00;97446.16;5050028;27;102552;-58
2022/03/23 03:16:23;;;;;;;12.50;9.23;;;;;;;-0.03;100.00;97448.75;5049931;27;101699;-57
2022/03/23 03:18:51;;;;;;;11.87;9.27;;;;;;;-0.15;100.00;97452.63;5050472;27;102985;-58
2022/03/23 03:21:18;;;;;;;11.27;9.40;;;;;;;-0.20;100.00;97452.28;5048245;27;105858;-58
2022/03/23 03:23:47;;;;;;;11.20;9.53;;;;;;;-0.17;100.00;97449.34;5053970;27;101761;-58
2022/03/23 03:26:15;;;;;;;11.37;8.50;;;;;;;-0.20;100.00;97459.31;5049595;27;102553;-58
2022/03/23 03:28:43;;;;;;;10.23;8.70;;;;;;;-0.32;100.00;97444.06;5048621;27;102016;-58
2022/03/23 03:31:14;;;;;;;11.23;8.83;;;;;;;-0.53;100.00;97441.88;5050324;27;102422;-58
2022/03/23 03:33:42;;;;;;;12.63;9.27;;;;;;;-0.58;100.00;97445.91;5050080;27;102804;-57
2022/03/23 03:36:10;;;;;;;10.77;8.93;;;;;;;-0.50;100.00;97444.16;5048645;27;102549;-57
2022/03/23 03:38:39;;;;;;;11.33;8.70;;;;;;;-0.56;100.00;97450.00;5050099;27;103186;-57
2022/03/23 03:41:06;;;;;;;11.70;9.00;;;;;;;-0.56;100.00;97444.78;5049330;27;102604;-57
2022/03/23 03:43:35;;;;;;;15.20;8.67;;;;;;;-0.60;100.00;97455.69;5050041;27;101908;-58
2022/03/23 03:46:06;;;;;;;11.03;8.73;;;;;;;-0.78;100.00;97457.56;5052685;27;102641;-58
2022/03/23 03:48:35;;;;;;;13.03;8.87;;;;;;;-0.73;100.00;97468.38;5050196;27;101811;-58
2022/03/23 03:51:03;;;;;;;10.43;8.80;;;;;;;-0.51;100.00;97463.41;5050025;27;102870;-58
2022/03/23 03:53:30;;;;;;;11.90;9.10;;;;;;;-0.46;100.00;97463.78;5047716;27;105247;-57
2022/03/23 03:55:57;;;;;;;11.27;8.87;;;;;;;-0.46;100.00;97466.38;5048358;27;102382;-57
2022/03/23 03:58:25;;;;;;;11.37;9.60;;;;;;;-0.39;100.00;97467.38;5048470;27;105533;-58
2022/03/23 04:00:52;;;;;;;10.73;9.17;;;;;;;-0.32;100.00;97465.81;5047802;27;105785;-58
2022/03/23 04:03:19;;;;;;;11.47;8.80;;;;;;;-0.60;100.00;97460.91;5048529;27;101867;-58
2022/03/23 04:05:49;;;;;;;11.80;9.10;;;;;;;-0.49;100.00;97465.88;5048323;27;105659;-58
2022/03/23 04:08:16;;;;;;;11.63;9.30;;;;;;;-0.57;100.00;97464.03;5051228;27;105302;-56
2022/03/23 04:10:43;;;;;;;11.03;9.20;;;;;;;-0.49;100.00;97466.72;5049937;27;102272;-58
2022/03/23 04:13:10;;;;;;;11.40;9.07;;;;;;;-0.73;100.00;97468.38;5047773;27;103946;-58
2022/03/23 04:15:38;;;;;;;11.73;8.50;;;;;;;-0.95;100.00;97468.84;5048253;27;102001;-57
2022/03/23 04:18:07;;;;;;;10.37;8.13;;;;;;;-1.15;100.00;97470.84;5048177;27;104037;-58
2022/03/23 04:20:36;;;;;;;11.40;9.33;;;;;;;-0.97;100.00;97470.81;5047632;27;105863;-57
2022/03/23 04:23:05;;;;;;;13.33;9.20;;;;;;;-0.88;100.00;97470.69;5048144;27;101851;-57
2022/03/23 04:25:31;;;;;;;11.33;9.00;;;;;;;-0.99;100.00;97473.56;5048273;27;104846;-57
2022/03/23 04:28:00;;;;;;;12.83;9.10;;;;;;;-0.86;100.00;97468.78;5048744;27;105509;-57
2022/03/23 04:30:30;;;;;;;11.70;8.90;;;;;;;-0.82;100.00;97475.31;5055152;27;102002;-58
2022/03/23 04:32:57;;;;;;;11.60;9.67;;;;;;;-0.84;100.00;97479.88;5052645;27;103076;-57
2022/03/23 04:35:25;;;;;;;10.20;9.00;;;;;;;-0.85;100.00;97475.63;5052977;27;101938;-57
2022/03/23 04:37:52;;;;;;;9.90;8.30;;;;;;;-0.81;100.00;97476.97;5053003;27;102528;-57
2022/03/23 04:40:22;;;;;;;15.60;9.50;;;;;;;-0.77;100.00;97480.88;5052287;27;102595;-57
2022/03/23 04:42:49;;;;;;;13.00;9.90;;;;;;;-0.72;100.00;97478.63;5051492;27;102109;-57
2022/03/23 04:45:19;;;;;;;10.73;9.20;;;;;;;-0.56;100.00;97485.78;5052509;27;102909;-57
2022/03/23 04:47:46;;;;;;;11.13;9.27;;;;;;;-0.56;100.00;97483.97;5049642;27;105707;-57
2022/03/23 04:50:14;;;;;;;11.53;9.33;;;;;;;-0.59;100.00;97486.06;5055663;27;101885;-58
2022/03/23 04:52:43;;;;;;;12.03;9.33;;;;;;;-0.50;100.00;97485.16;5051733;27;102698;-57
2022/03/23 04:55:11;;;;;;;14.37;9.80;;;;;;;-0.47;100.00;97485.66;5051727;27;102185;-58
2022/03/23 04:57:40;;;;;;;12.73;9.50;;;;;;;-0.47;100.00;97502.13;5050632;27;102794;-57
2022/03/23 05:00:10;;;;;;;12.43;9.20;;;;;;;-0.62;100.00;97495.03;5049328;27;102900;-58
2022/03/23 05:02:38;;;;;;;12.40;9.03;;;;;;;-0.80;100.00;97493.44;5052478;27;102289;-58
2022/03/23 05:05:06;;;;;;;10.00;8.80;;;;;;;-0.73;100.00;97495.28;5052459;27;102833;-57
2022/03/23 05:07:32;;;;;;;11.90;9.40;;;;;;;-0.72;100.00;97496.91;5051878;27;102552;-57
2022/03/23 05:10:00;;;;;;;11.57;8.83;;;;;;;-0.99;100.00;97498.88;5052595;27;101812;-57
2022/03/23 05:12:27;;;;;;;13.40;9.33;;;;;;;-1.06;100.00;97496.03;5054811;27;102653;-57
2022/03/23 05:14:56;;;;;;;10.87;9.17;;;;;;;-1.19;100.00;97498.22;5052154;27;102496;-57
2022/03/23 05:17:23;;;;;;;11.20;8.63;;;;;;;-1.11;100.00;97495.66;5040729;27;104435;-57
2022/03/23 05:19:50;;;;;;;14.73;9.43;;;;;;;-1.01;100.00;97501.63;5050575;27;103921;-58
2022/03/23 05:22:17;;;;;;;13.37;9.10;;;;;;;-0.87;100.00;97498.47;5050924;27;102191;-58
2022/03/23 05:24:44;;;;;;;12.90;9.30;;;;;;;-0.90;100.00;97506.59;5051900;27;102316;-57
2022/03/23 05:27:11;;;;;;;12.73;9.50;;;;;;;-0.92;100.00;97503.34;5051124;27;102690;-58
2022/03/23 05:29:38;;;;;;;13.07;9.67;;;;;;;-0.82;100.00;97500.63;5052379;27;101818;-58
2022/03/23 05:32:10;;;;;;;11.20;8.20;;;;;;;-0.83;100.00;97505.00;5050531;27;105271;-57
2022/03/23 05:34:37;;;;;;;13.70;9.17;;;;;;;-0.79;100.00;97501.13;5053617;27;105440;-57
2022/03/23 05:37:05;;;;;;;14.00;9.73;;;;;;;-0.58;100.00;97501.59;5050559;27;105553;-58
2022/03/23 05:39:31;;;;;;;12.00;9.77;;;;;;;-0.52;100.00;97508.81;5049795;27;105442;-57
2022/03/23 05:41:59;;;;;;;12.03;8.77;;;;;;;-0.38;100.00;97510.03;5050311;27;102087;-57
2022/03/23 05:44:25;;;;;;;10.73;9.10;;;;;;;-0.32;100.00;97505.00;5050450;27;105675;-57
2022/03/23 05:46:52;;;;;;;11.63;8.90;;;;;;;-0.34;100.00;97509.56;5049935;27;106004;-58
2022/03/23 05:49:21;;;;;;;13.10;8.97;;;;;;;-0.20;100.00;97504.56;5050499;27;101950;-58
2022/03/23 05:51:48;;;;;;;11.77;8.60;;;;;;;-0.21;100.00;97504.72;5050334;27;105296;-57
2022/03/23 05:54:16;;;;;;;14.67;9.10;;;;;;;-0.22;100.00;97510.91;5051227;27;102793;-58
2022/03/23 05:56:42;;;;;;;14.00;9.10;;;;;;;-0.17;100.00;97509.47;5053476;27;101985;-58
2022/03/23 05:59:09;;;;;;;12.90;8.87;;;;;;;-0.07;100.00;97515.41;5049220;27;105465;-58
2022/03/23 06:01:37;;;;;;;12.57;9.50;;;;;;;0.07;100.00;97506.94;5050009;27;101892;-58
2022/03/23 06:04:05;;;;;;;15.60;9.50;;;;;;;0.35;100.00;97510.16;5050479;27;105236;-58
2022/03/23 06:06:33;;;;;;;16.30;11.90;;;;;;;0.54;100.00;97499.38;5049222;27;105722;-58
2022/03/23 06:09:00;;;;;;;69.77;33.17;;;;;;;0.90;100.00;97501.56;5050375;27;101813;-58
2022/03/23 06:11:26;;;;;;;31.30;18.97;;;;;;;1.11;100.00;97506.31;5049133;27;104821;-59
2022/03/23 06:13:54;;;;;;;25.13;16.70;;;;;;;1.15;100.00;97515.47;5048511;27;105702;-59
2022/03/23 06:16:21;;;;;;;24.40;14.60;;;;;;;1.38;100.00;97516.44;5048481;27;101871;-59
2022/03/23 06:18:48;;;;;;;18.83;14.10;;;;;;;1.57;100.00;97519.50;5051934;27;106155;-59
2022/03/23 06:21:15;;;;;;;20.67;12.93;;;;;;;1.83;100.00;97524.53;5049917;27;102104;-59
2022/03/23 06:23:43;;;;;;;22.87;14.10;;;;;;;1.93;100.00;97523.34;5050318;27;102319;-58
2022/03/23 06:26:10;;;;;;;23.63;13.80;;;;;;;2.04;100.00;97520.38;5048550;27;105261;-59
2022/03/23 06:28:37;;;;;;;21.57;11.60;;;;;;;2.21;100.00;97518.47;5048665;27;102260;-59
2022/03/23 06:31:05;;;;;;;14.17;10.13;;;;;;;2.05;100.00;97519.38;5049027;27;104762;-59
2022/03/23 06:33:32;;;;;;;15.47;10.13;;;;;;;2.36;100.00;97532.53;5048296;27;105736;-59
2022/03/23 06:35:59;;;;;;;13.40;9.87;;;;;;;2.56;100.00;97525.84;5048868;27;102673;-59
2022/03/23 06:38:26;;;;;;;14.50;9.67;;;;;;;2.85;100.00;97532.03;5049571;27;105567;-59
2022/03/23 06:40:55;;;;;;;16.70;10.00;;;;;;;2.93;100.00;97528.53;5052344;27;105115;-59
2022/03/23 06:43:22;;;;;;;13.87;9.27;;;;;;;3.21;100.00;97527.00;5048603;27;104364;-59
2022/03/23 06:45:49;;;;;;;14.03;9.60;;;;;;;3.29;100.00;97533.03;5049063;27;105426;-59
2022/03/23 06:48:16;;;;;;;15.57;11.83;;;;;;;3.57;100.00;97533.28;5049709;27;101959;-59
2022/03/23 06:50:43;;;;;;;22.33;15.30;;;;;;;3.62;100.00;97533.56;5047426;27;105572;-59
2022/03/23 06:53:10;;;;;;;24.13;15.77;;;;;;;3.61;100.00;97530.09;5049481;27;102682;-59
2022/03/23 06:55:38;;;;;;;15.03;12.03;;;;;;;3.80;100.00;97528.75;5048370;27;101831;-59
2022/03/23 06:58:06;;;;;;;14.23;9.90;;;;;;;3.92;100.00;97532.56;5048047;27;106003;-59
2022/03/23 07:00:33;;;;;;;14.13;9.00;;;;;;;4.11;100.00;97546.03;5052305;27;105061;-59
2022/03/23 07:03:01;;;;;;;10.70;9.60;;;;;;;4.15;100.00;97542.00;5049360;27;105564;-59
2022/03/23 07:05:29;;;;;;;9.93;8.60;;;;;;;4.34;100.00;97532.75;5048705;27;104342;-59
2022/03/23 07:10:42;;;;;;;13.03;8.47;;;;;;;4.99;100.00;97538.75;5050670;27;103632;-59
2022/03/23 07:13:15;;;;;;;11.20;8.03;;;;;;;5.28;100.00;97538.63;5047386;27;105584;-59
2022/03/23 07:15:44;;;;;;;9.00;7.63;;;;;;;5.49;100.00;97541.25;5048908;27;101838;-59
2022/03/23 07:18:11;;;;;;;10.60;7.33;;;;;;;5.70;100.00;97541.22;5048811;27;105598;-58
2022/03/23 07:20:38;;;;;;;9.70;7.63;;;;;;;5.99;100.00;97554.25;5048344;27;105482;-57
2022/03/23 07:23:05;;;;;;;8.93;6.73;;;;;;;6.01;100.00;97554.88;5052533;27;102144;-58
2022/03/23 07:25:32;;;;;;;9.60;7.13;;;;;;;6.17;100.00;97555.38;5047743;27;106025;-58
2022/03/23 07:28:00;;;;;;;8.37;6.50;;;;;;;6.22;100.00;97560.88;5048788;27;102173;-58
2022/03/23 07:30:35;;;;;;;9.37;7.00;;;;;;;6.30;100.00;97552.00;5049107;27;105194;-58
2022/03/23 07:33:02;;;;;;;8.60;7.10;;;;;;;6.24;100.00;97552.78;5048450;27;104990;-58
2022/03/23 07:35:31;;;;;;;7.67;6.60;;;;;;;6.53;100.00;97563.06;5048762;27;102615;-58
2022/03/23 07:37:59;;;;;;;12.10;6.57;;;;;;;6.73;100.00;97564.81;5048479;27;105171;-58
2022/03/23 07:40:26;;;;;;;10.07;6.83;;;;;;;6.78;100.00;97559.75;5048195;27;105293;-58
2022/03/23 07:42:53;;;;;;;12.67;6.50;;;;;;;6.94;100.00;97566.50;5048490;27;101871;-58
2022/03/23 07:45:21;;;;;;;9.27;6.70;;;;;;;7.11;100.00;97562.47;5051377;27;105445;-59
2022/03/23 07:47:49;;;;;;;9.50;6.67;;;;;;;7.20;97.79;97561.28;5048492;27;101899;-60
2022/03/23 07:50:17;;;;;;;7.80;6.37;;;;;;;7.16;95.33;97568.00;5048255;27;105139;-60
2022/03/23 07:52:44;;;;;;;7.50;5.57;;;;;;;7.48;89.78;97572.53;5048012;27;105448;-58
2022/03/23 07:55:11;;;;;;;11.33;6.10;;;;;;;7.65;93.96;97563.16;5049547;27;101820;-57
2022/03/23 07:57:40;;;;;;;6.70;5.53;;;;;;;8.10;95.71;97567.63;5048449;27;105638;-57
2022/03/23 08:00:08;;;;;;;11.90;5.93;;;;;;;8.31;89.29;97567.41;5047740;27;105196;-51
2022/03/23 08:02:42;;;;;;;8.97;5.93;;;;;;;8.58;90.22;97574.28;5051123;27;101949;-56
2022/03/23 08:05:10;;;;;;;6.63;5.40;;;;;;;8.90;86.41;97573.34;5053463;27;102305;-57
2022/03/23 08:07:37;;;;;;;6.97;5.60;;;;;;;8.91;73.13;97574.97;5054941;27;104007;-54
2022/03/23 08:10:05;;;;;;;7.87;5.23;;;;;;;8.98;67.00;97575.72;5051964;27;103730;-54
2022/03/23 08:12:32;;;;;;;7.30;5.17;;;;;;;9.40;70.36;97570.63;5051667;27;104920;-53
2022/03/23 08:14:59;;;;;;;7.03;5.23;;;;;;;9.51;64.43;97569.09;5053438;27;102345;-54
2022/03/23 08:17:25;;;;;;;8.27;4.97;;;;;;;9.65;62.42;97575.97;5051605;27;104813;-56
2022/03/23 08:22:35;;;;;;;5.73;4.90;;;;;;;10.25;57.43;97569.97;5052454;27;102139;-55
2022/03/23 08:25:02;;;;;;;6.33;4.60;;;;;;;10.39;54.64;97571.44;5051893;27;105166;-55
2022/03/23 08:27:28;;;;;;;5.30;4.80;;;;;;;10.36;52.67;97571.91;5050978;27;105692;-55
2022/03/23 08:29:56;;;;;;;6.07;4.40;;;;;;;10.41;54.23;97574.72;5055293;27;101840;-56
2022/03/23 08:32:23;;;;;;;6.33;4.60;;;;;;;10.47;52.62;97573.81;5050747;27;105235;-55
2022/03/23 08:34:50;;;;;;;7.90;4.50;;;;;;;10.97;54.47;97577.94;5052903;27;101880;-56
2022/03/23 08:37:17;;;;;;;4.83;4.37;;;;;;;11.25;51.46;97578.19;5051745;27;103914;-56
2022/03/23 08:39:46;;;;;;;9.30;4.80;;;;;;;11.13;52.32;97572.00;5052479;27;102865;-56
2022/03/23 08:42:13;;;;;;;9.63;4.83;;;;;;;11.46;52.38;97569.69;5051215;27;102288;-53
2022/03/23 08:44:41;;;;;;;6.93;4.33;;;;;;;11.76;51.90;97576.66;5051726;27;104889;-55
2022/03/23 08:47:08;;;;;;;5.47;4.90;;;;;;;12.08;50.93;97574.47;5050686;27;105188;-56
2022/03/23 08:49:35;;;;;;;7.40;4.93;;;;;;;12.21;50.34;97574.28;5051265;27;101841;-56
2022/03/23 08:52:03;;;;;;;7.17;4.93;;;;;;;12.32;49.14;97574.25;5053908;27;105574;-56
2022/03/23 08:54:30;;;;;;;6.40;5.00;;;;;;;12.51;49.31;97574.94;5050865;27;101862;-54
2022/03/23 08:56:59;;;;;;;5.97;5.10;;;;;;;12.68;47.91;97579.34;5051203;27;104929;-56
2022/03/23 08:59:26;;;;;;;7.60;4.70;;;;;;;12.88;48.75;97578.97;5050700;27;104976;-56
2022/03/23 09:01:53;;;;;;;5.50;4.80;;;;;;;13.18;47.50;97571.56;5052545;27;102289;-55
2022/03/23 09:04:20;;;;;;;4.87;4.37;;;;;;;13.09;46.03;97568.47;5051277;27;104131;-55
2022/03/23 09:06:47;;;;;;;7.63;4.10;;;;;;;12.71;44.08;97564.72;5050261;27;105794;-56
2022/03/23 09:09:14;;;;;;;4.97;4.47;;;;;;;13.19;44.64;97565.22;5051346;27;102245;-56
2022/03/23 09:11:43;;;;;;;4.40;4.00;;;;;;;13.39;42.14;97566.38;5055346;27;102426;-55
2022/03/23 09:14:13;;;;;;;7.00;3.90;;;;;;;13.44;41.10;97568.34;5051607;27;101829;-56
2022/03/23 09:16:41;;;;;;;6.70;3.87;;;;;;;13.66;40.81;97563.91;5052185;27;102916;-55
2022/03/23 09:19:09;;;;;;;6.73;3.57;;;;;;;14.03;40.55;97563.25;5050200;27;104221;-56
2022/03/23 09:21:38;;;;;;;5.23;4.13;;;;;;;14.40;40.11;97560.88;5052306;27;102058;-54
2022/03/23 09:24:06;;;;;;;6.60;3.63;;;;;;;14.22;37.17;97553.91;5052283;27;102294;-55
2022/03/23 09:26:33;;;;;;;3.77;3.13;;;;;;;14.02;37.38;97550.09;5051518;27;102613;-54
2022/03/23 09:29:00;;;;;;;3.80;3.50;;;;;;;14.26;36.06;97556.91;5052212;27;101822;-53
2022/03/23 09:31:29;;;;;;;5.73;3.70;;;;;;;14.19;35.38;97553.56;5050918;27;105109;-56
2022/03/23 09:33:56;;;;;;;4.87;3.10;;;;;;;14.35;35.54;97552.78;5053586;27;105895;-56
2022/03/23 09:39:07;;;;;;;4.20;3.00;;;;;;;14.49;34.05;97554.06;5051509;27;103036;-54
2022/03/23 09:41:34;;;;;;;3.60;3.10;;;;;;;14.67;35.22;97540.38;5052056;27;101920;-55
2022/03/23 09:44:02;;;;;;;7.07;3.33;;;;;;;14.95;34.76;97546.38;5052177;27;103520;-56
2022/03/23 09:46:32;;;;;;;3.87;3.50;;;;;;;14.89;33.67;97547.34;5051367;27;102559;-55
2022/03/23 09:48:59;;;;;;;6.20;3.50;;;;;;;14.97;33.65;97540.75;5050439;27;101926;-57
2022/03/23 09:51:27;;;;;;;4.70;2.90;;;;;;;15.21;34.97;97542.13;5051579;27;102477;-57
2022/03/23 09:53:54;;;;;;;3.27;2.60;;;;;;;15.27;32.85;97546.47;5051343;27;102858;-53
2022/03/23 09:56:21;;;;;;;3.27;2.83;;;;;;;15.53;32.13;97540.34;5054752;27;101880;-55
2022/03/23 09:58:47;;;;;;;3.13;2.90;;;;;;;16.06;32.42;97534.91;5050830;27;104418;-56
2022/03/23 10:02:13;;;;;;;3.00;2.70;;;;;;;16.23;30.53;97536.38;5051812;27;102377;-55
2022/03/23 10:05:39;;;;;;;3.33;2.73;;;;;;;16.12;30.67;97528.50;5049839;27;104746;-55
2022/03/23 10:08:40;;;;;;;2.50;2.30;;;;;;;16.20;28.90;97520.81;5048285;27;105288;-59
2022/03/23 10:11:51;;;;;;;5.97;2.90;;;;;;;15.96;28.94;97521.44;5045821;27;102056;-59
2022/03/23 10:15:23;;;;;;;2.93;2.50;;;;;;;15.92;28.67;97517.63;5016059;27;105250;-59
2022/03/23 10:18:26;;;;;;;4.67;2.60;;;;;;;16.51;28.54;97516.47;5049132;27;105425;-58
2022/03/23 10:20:55;;;;;;;2.97;2.60;;;;;;;16.28;28.24;97511.44;5046659;27;103173;-58
2022/03/23 10:23:22;;;;;;;6.03;3.20;;;;;;;16.33;28.04;97519.50;5052685;27;106171;-59
2022/03/23 10:25:50;;;;;;;3.10;2.80;;;;;;;16.93;28.17;97509.13;5048466;27;102273;-59
2022/03/23 10:28:18;;;;;;;5.53;3.10;;;;;;;16.99;26.75;97516.13;5049989;27;105058;-59
2022/03/23 10:30:47;;;;;;;4.77;3.10;;;;;;;17.39;27.31;97509.00;5049360;27;105054;-59
2022/03/23 10:33:19;;;;;;;9.33;3.37;;;;;;;18.06;28.12;97504.22;5049758;27;102436;-59
2022/03/23 10:35:47;;;;;;;3.53;3.10;;;;;;;18.06;26.05;97506.94;5049578;27;104994;-59
2022/03/23 10:38:18;;;;;;;3.20;2.90;;;;;;;18.26;27.47;97498.00;5050664;27;102853;-59
2022/03/23 10:40:47;;;;;;;4.53;3.17;;;;;;;17.65;26.35;97507.19;5049624;27;102552;-59
2022/03/23 10:43:16;;;;;;;4.53;3.27;;;;;;;16.83;26.91;97504.50;5049577;27;105146;-59
2022/03/23 10:45:44;;;;;;;3.70;3.07;;;;;;;17.43;26.26;97498.56;5052481;27;104983;-59
2022/03/23 10:48:14;;;;;;;3.80;3.30;;;;;;;17.31;26.60;97501.44;5049597;27;105518;-59
2022/03/23 10:50:53;;;;;;;6.10;2.83;;;;;;;18.14;26.64;97490.22;5048935;27;105362;-59
2022/03/23 10:53:33;;;;;;;3.50;3.20;;;;;;;18.66;26.86;97487.97;5049318;27;101814;-59
2022/03/23 10:56:01;;;;;;;3.70;3.40;;;;;;;18.55;25.93;97482.88;5048916;27;103830;-59
2022/03/23 10:58:29;;;;;;;4.50;3.33;;;;;;;18.06;26.45;97490.78;5048988;27;105687;-59
2022/03/23 11:00:58;;;;;;;4.63;3.20;;;;;;;18.36;28.03;97476.50;5049288;27;101886;-59
2022/03/23 11:03:48;;;;;;;8.57;3.50;;;;;;;18.73;26.86;97472.31;5049027;27;104821;-59
2022/03/23 11:06:17;;;;;;;6.10;3.50;;;;;;;18.13;25.33;97474.31;5048604;27;105411;-59
2022/03/23 11:08:46;;;;;;;4.10;3.70;;;;;;;18.11;25.98;97466.53;5052621;27;101695;-59
2022/03/23 11:16:46;;;;;;;3.47;3.17;;;;;;;18.54;25.01;97468.59;5048932;27;105692;-59
2022/03/23 11:19:19;;;;;;;4.20;3.40;;;;;;;18.60;25.33;97461.31;5048520;27;103711;-59
2022/03/23 11:22:01;;;;;;;3.50;3.17;;;;;;;18.45;24.40;97464.06;5048986;27;101871;-59
2022/03/23 11:24:31;;;;;;;4.43;3.60;;;;;;;18.76;24.14;97465.56;5048938;27;105561;-59
2022/03/23 11:26:58;;;;;;;3.63;3.33;;;;;;;18.78;23.75;97463.41;5049817;27;102617;-59
2022/03/23 11:29:26;;;;;;;6.70;3.40;;;;;;;19.49;24.73;97460.06;5052415;27;101935;-59
2022/03/23 11:31:54;;;;;;;11.77;3.47;;;;;;;19.06;23.87;97454.63;5048137;27;105750;-59
2022/03/23 11:34:23;;;;;;;4.50;3.43;;;;;;;19.04;24.55;97448.72;5048753;27;101865;-59
2022/03/23 11:36:54;;;;;;;4.57;3.80;;;;;;;18.80;23.88;97448.56;5048462;27;105643;-59
2022/03/23 11:39:23;;;;;;;4.77;3.83;;;;;;;19.01;25.15;97446.59;5048142;27;103800;-59
2022/03/23 11:41:59;;;;;;;4.40;4.00;;;;;;;20.05;24.94;97444.22;5048697;27;101973;-59
2022/03/23 11:44:27;;;;;;;4.50;3.70;;;;;;;20.25;23.75;97446.72;5048589;27;105337;-59
2022/03/23 11:46:59;;;;;;;3.40;2.53;;;;;;;20.77;23.08;97444.00;5049209;27;103111;-59
2022/03/23 11:49:33;;;;;;;3.23;2.93;;;;;;;20.85;21.87;97440.63;5048370;27;101997;-59